createdAt,value
2018-04-09T00:02:21.581Z,7.80
2018-04-09T00:04:49.056Z,7.90
2018-04-09T00:07:17.362Z,7.70
2018-04-09T00:09:44.825Z,7.30
2018-04-09T00:12:12.325Z,6.80
2018-04-09T00:14:39.789Z,7.10
2018-04-09T00:17:07.301Z,7.83
2018-04-09T00:19:34.766Z,7.13
2018-04-09T00:22:02.261Z,7.20
2018-04-09T00:24:29.730Z,6.53
2018-04-09T00:26:58.077Z,7.77
2018-04-09T00:29:25.566Z,8.10
2018-04-09T00:31:53.923Z,7.37
2018-04-09T00:34:21.440Z,8.70
2018-04-09T00:36:48.926Z,7.50
2018-04-09T00:39:16.414Z,8.80
2018-04-09T00:41:44.664Z,7.73
2018-04-09T00:44:12.169Z,7.77
2018-04-09T00:46:39.792Z,7.80
2018-04-09T00:49:08.052Z,8.20
2018-04-09T00:51:35.517Z,8.40
2018-04-09T00:54:02.989Z,7.53
2018-04-09T00:56:31.249Z,7.67
2018-04-09T00:58:58.729Z,7.80
2018-04-09T01:01:26.972Z,8.27
2018-04-09T01:03:54.441Z,8.33
2018-04-09T01:06:21.960Z,7.40
2018-04-09T01:08:49.443Z,8.40
2018-04-09T01:11:16.909Z,9.00
2018-04-09T01:13:44.391Z,9.07
2018-04-09T01:16:12.640Z,8.37
2018-04-09T01:18:40.120Z,7.53
2018-04-09T01:21:08.363Z,9.63
2018-04-09T01:23:35.844Z,8.80
2018-04-09T01:26:03.329Z,8.20
2018-04-09T01:28:31.561Z,8.83
2018-04-09T01:30:59.148Z,8.83
2018-04-09T01:33:27.386Z,10.20
2018-04-09T01:35:54.875Z,9.57
2018-04-09T01:38:22.338Z,8.77
2018-04-09T01:40:50.653Z,8.27
2018-04-09T01:43:18.134Z,8.37
2018-04-09T01:45:45.617Z,9.50
2018-04-09T01:48:13.089Z,8.53
2018-04-09T01:50:41.355Z,8.30
2018-04-09T01:53:08.814Z,8.63
2018-04-09T01:55:37.278Z,7.73
2018-04-09T01:58:06.264Z,9.57
2018-04-09T02:00:33.753Z,9.20
2018-04-09T02:03:02.582Z,7.87
2018-04-09T02:05:30.073Z,8.60
2018-04-09T02:07:58.318Z,8.47
2018-04-09T02:10:25.776Z,8.97
2018-04-09T02:12:53.352Z,9.93
2018-04-09T02:15:20.833Z,10.70
2018-04-09T02:17:49.820Z,11.07
2018-04-09T02:20:17.296Z,9.00
2018-04-09T02:22:45.684Z,8.50
2018-04-09T02:25:13.905Z,9.33
2018-04-09T02:27:41.381Z,9.50
2018-04-09T02:30:08.844Z,9.40
2018-04-09T02:32:36.326Z,9.83
2018-04-09T02:35:04.600Z,9.67
2018-04-09T02:37:32.868Z,9.17
2018-04-09T02:40:00.325Z,9.23
2018-04-09T02:42:28.582Z,9.63
2018-04-09T02:44:57.563Z,8.90
2018-04-09T02:47:25.043Z,8.97
2018-04-09T02:49:52.534Z,8.90
2018-04-09T02:52:20.011Z,9.10
2018-04-09T02:54:47.542Z,8.80
2018-04-09T02:57:14.952Z,9.33
2018-04-09T02:59:42.441Z,9.30
2018-04-09T03:02:10.685Z,10.73
2018-04-09T03:04:38.184Z,10.63
2018-04-09T03:07:06.413Z,9.80
2018-04-09T03:09:33.900Z,10.57
2018-04-09T03:12:02.147Z,9.70
2018-04-09T03:14:29.706Z,10.10
2018-04-09T03:16:57.192Z,9.00
2018-04-09T03:19:25.422Z,9.30
2018-04-09T03:21:52.909Z,9.80
2018-04-09T03:24:20.373Z,11.00
2018-04-09T03:26:47.857Z,8.80
2018-04-09T03:29:16.113Z,8.40
2018-04-09T03:31:45.102Z,8.33
2018-04-09T03:34:13.627Z,10.50
2018-04-09T03:36:41.121Z,10.03
2018-04-09T03:39:08.658Z,8.70
2018-04-09T03:41:36.154Z,9.40
2018-04-09T03:44:03.617Z,9.57
2018-04-09T03:46:31.856Z,9.90
2018-04-09T03:48:59.323Z,9.80
2018-04-09T03:51:26.805Z,9.80
2018-04-09T03:53:55.263Z,9.40
2018-04-09T03:56:22.821Z,8.60
2018-04-09T03:58:50.404Z,9.10
2018-04-09T04:01:18.671Z,8.83
2018-04-09T04:03:46.240Z,8.50
2018-04-09T04:06:14.491Z,8.90
2018-04-09T04:08:41.955Z,8.67
2018-04-09T04:11:09.421Z,8.50
2018-04-09T04:13:36.898Z,8.43
2018-04-09T04:16:17.152Z,9.73
2018-04-09T04:18:57.336Z,9.37
2018-04-09T04:21:36.788Z,9.37
2018-04-09T04:24:04.284Z,8.30
2018-04-09T04:26:31.760Z,8.00
2018-04-09T04:29:00.001Z,8.43
2018-04-09T04:31:27.473Z,8.50
2018-04-09T04:33:56.468Z,8.77
2018-04-09T04:36:24.078Z,9.97
2018-04-09T04:38:51.564Z,8.20
2018-04-09T04:41:19.037Z,7.47
2018-04-09T04:43:46.508Z,9.07
2018-04-09T04:46:13.988Z,8.83
2018-04-09T04:48:41.535Z,8.87
2018-04-09T04:51:09.773Z,8.23
2018-04-09T04:53:37.247Z,8.90
2018-04-09T04:56:05.453Z,7.40
2018-04-09T04:58:32.945Z,8.70
2018-04-09T05:01:00.438Z,9.27
2018-04-09T05:03:27.897Z,8.50
2018-04-09T05:05:55.470Z,8.17
2018-04-09T05:08:23.710Z,8.07
2018-04-09T05:10:51.212Z,8.83
2018-04-09T05:13:19.465Z,9.07
2018-04-09T05:15:46.952Z,8.70
2018-04-09T05:18:14.512Z,8.23
2018-04-09T05:20:42.013Z,8.37
2018-04-09T05:23:09.613Z,9.20
2018-04-09T05:25:38.049Z,9.50
2018-04-09T05:28:05.563Z,8.10
2018-04-09T05:30:33.893Z,8.60
2018-04-09T05:33:01.368Z,9.17
2018-04-09T05:35:28.848Z,9.57
2018-04-09T05:37:57.090Z,9.97
2018-04-09T05:40:26.076Z,10.30
2018-04-09T05:42:53.573Z,9.40
2018-04-09T05:45:21.812Z,9.90
2018-04-09T05:47:49.374Z,10.63
2018-04-09T05:50:16.879Z,9.77
2018-04-09T05:52:44.506Z,10.30
2018-04-09T05:55:13.550Z,10.10
2018-04-09T05:57:41.029Z,9.50
2018-04-09T06:00:08.505Z,10.97
2018-04-09T06:02:37.489Z,10.03
2018-04-09T06:05:04.961Z,10.23
2018-04-09T06:07:32.441Z,9.80
2018-04-09T06:10:00.671Z,10.07
2018-04-09T06:15:02.880Z,10.47
2018-04-09T06:17:30.388Z,10.57
2018-04-09T06:19:57.857Z,10.10
2018-04-09T06:22:25.358Z,11.00
2018-04-09T06:24:54.504Z,10.80
2018-04-09T06:27:21.976Z,9.87
2018-04-09T06:29:49.470Z,9.73
2018-04-09T06:32:17.713Z,11.07
2018-04-09T06:34:45.225Z,10.60
2018-04-09T06:37:12.737Z,9.97
2018-04-09T06:39:40.320Z,10.33
2018-04-09T06:42:07.789Z,10.47
2018-04-09T06:44:36.048Z,11.33
2018-04-09T06:47:03.662Z,11.83
2018-04-09T06:49:31.185Z,11.77
2018-04-09T06:51:59.445Z,11.17
2018-04-09T06:54:28.409Z,11.03
2018-04-09T06:56:55.886Z,11.63
2018-04-09T06:59:23.372Z,11.20
2018-04-09T07:01:51.467Z,11.10
2018-04-09T07:04:18.965Z,11.87
2018-04-09T07:06:46.432Z,11.20
2018-04-09T07:09:13.922Z,10.67
2018-04-09T07:11:42.236Z,12.30
2018-04-09T07:14:09.708Z,11.33
2018-04-09T07:16:37.201Z,11.23
2018-04-09T07:19:05.459Z,12.03
2018-04-09T07:21:32.947Z,10.83
2018-04-09T07:24:00.420Z,12.50
2018-04-09T07:26:27.905Z,12.03
2018-04-09T07:28:55.385Z,12.53
2018-04-09T07:31:22.868Z,14.43
2018-04-09T07:33:51.212Z,13.60
2018-04-09T07:36:20.217Z,15.33
2018-04-09T07:38:47.767Z,15.03
2018-04-09T07:41:15.259Z,16.10
2018-04-09T07:43:42.760Z,17.10
2018-04-09T07:46:10.234Z,18.90
2018-04-09T07:48:37.730Z,22.60
2018-04-09T07:51:05.249Z,22.93
2018-04-09T07:53:32.743Z,24.20
2018-04-09T07:56:00.985Z,26.37
2018-04-09T07:58:28.476Z,28.67
2018-04-09T08:00:56.713Z,29.73
2018-04-09T08:03:24.202Z,29.07
2018-04-09T08:05:52.588Z,28.73
2018-04-09T08:08:20.896Z,27.30
2018-04-09T08:10:49.089Z,29.30
2018-04-09T08:13:16.691Z,27.10
2018-04-09T08:15:44.929Z,35.20
2018-04-09T08:18:12.410Z,41.40
2018-04-09T08:20:40.649Z,42.93
2018-04-09T08:23:08.228Z,45.10
2018-04-09T08:25:35.756Z,48.67
2018-04-09T08:28:03.250Z,47.20
2018-04-09T08:30:31.478Z,49.37
2018-04-09T08:32:59.564Z,48.13
2018-04-09T08:35:27.040Z,52.20
2018-04-09T08:37:54.547Z,53.87
2018-04-09T08:40:22.026Z,52.30
2018-04-09T08:42:49.502Z,54.80
2018-04-09T08:45:17.140Z,51.80
2018-04-09T08:47:46.032Z,50.37
2018-04-09T08:50:13.522Z,50.87
2018-04-09T08:52:41.539Z,52.13
2018-04-09T08:55:10.052Z,52.13
2018-04-09T08:57:37.685Z,52.93
2018-04-09T09:00:05.504Z,51.73
2018-04-09T09:02:33.099Z,52.17
2018-04-09T09:05:01.337Z,52.20
2018-04-09T09:07:28.980Z,52.67
2018-04-09T09:09:56.473Z,53.70
2018-04-09T09:12:24.053Z,54.23
2018-04-09T09:14:52.367Z,57.37
2018-04-09T09:17:19.876Z,55.43
2018-04-09T09:19:47.352Z,54.10
2018-04-09T09:22:14.898Z,55.17
2018-04-09T09:24:43.166Z,53.70
2018-04-09T09:27:10.670Z,53.13
2018-04-09T09:29:38.333Z,53.60
2018-04-09T09:32:05.812Z,52.73
2018-04-09T09:34:33.358Z,54.63
2018-04-09T09:37:00.872Z,56.23
2018-04-09T09:39:29.117Z,55.10
2018-04-09T09:41:56.745Z,53.83
2018-04-09T09:44:24.302Z,55.80
2018-04-09T09:46:51.822Z,55.37
2018-04-09T09:49:20.126Z,54.90
2018-04-09T09:51:48.353Z,55.40
2018-04-09T09:54:15.816Z,57.30
2018-04-09T09:56:43.441Z,58.50
2018-04-09T09:59:10.927Z,56.90
2018-04-09T10:01:42.473Z,60.17
2018-04-09T10:04:10.020Z,57.30
2018-04-09T10:06:37.582Z,57.53
2018-04-09T10:09:05.803Z,58.80
2018-04-09T10:11:34.022Z,57.20
2018-04-09T10:14:01.501Z,57.97
2018-04-09T10:16:29.098Z,54.53
2018-04-09T10:18:56.573Z,55.93
2018-04-09T10:21:25.173Z,57.37
2018-04-09T10:23:52.801Z,55.37
2018-04-09T10:26:20.392Z,56.77
2018-04-09T10:28:47.884Z,57.93
2018-04-09T10:31:15.365Z,57.17
2018-04-09T10:33:42.949Z,56.00
2018-04-09T10:36:10.408Z,54.27
2018-04-09T10:38:37.902Z,53.43
2018-04-09T10:41:05.525Z,55.50
2018-04-09T10:43:33.158Z,55.53
2018-04-09T10:46:01.412Z,57.40
2018-04-09T10:48:28.901Z,56.10
2018-04-09T10:50:57.152Z,55.83
2018-04-09T10:53:25.869Z,54.63
2018-04-09T10:55:54.093Z,56.30
2018-04-09T10:58:21.580Z,55.83
2018-04-09T11:00:49.837Z,54.83
2018-04-09T11:03:17.322Z,53.53
2018-04-09T11:05:45.622Z,54.33
2018-04-09T11:08:13.162Z,50.97
2018-04-09T11:10:40.671Z,54.40
2018-04-09T11:13:08.160Z,51.70
2018-04-09T11:15:36.497Z,53.73
2018-04-09T11:18:03.967Z,54.87
2018-04-09T11:20:32.227Z,52.13
2018-04-09T11:22:59.822Z,54.53
2018-04-09T11:25:27.752Z,54.40
2018-04-09T11:27:55.289Z,54.20
2018-04-09T11:30:22.767Z,54.33
2018-04-09T11:32:50.237Z,54.70
2018-04-09T11:35:18.228Z,52.20
2018-04-09T11:37:45.704Z,52.80
2018-04-09T11:40:13.961Z,53.60
2018-04-09T11:42:42.284Z,52.67
2018-04-09T11:45:09.787Z,52.97
2018-04-09T11:47:37.257Z,53.40
2018-04-09T11:50:04.731Z,52.03
2018-04-09T11:52:33.011Z,51.80
2018-04-09T11:55:01.283Z,51.53
2018-04-09T11:57:29.612Z,50.83
2018-04-09T11:59:57.076Z,50.70
2018-04-09T12:02:24.555Z,52.40
2018-04-09T12:04:52.868Z,50.20
2018-04-09T12:07:20.952Z,51.97
2018-04-09T12:09:48.431Z,48.00
2018-04-09T12:12:16.164Z,49.57
2018-04-09T12:14:43.640Z,48.93
2018-04-09T12:17:11.120Z,48.60
2018-04-09T12:19:38.587Z,46.63
2018-04-09T12:22:06.165Z,48.13
2018-04-09T12:24:34.503Z,49.07
2018-04-09T12:27:02.069Z,46.40
2018-04-09T12:29:29.641Z,46.77
2018-04-09T12:31:57.174Z,48.33
2018-04-09T12:34:24.837Z,48.70
2018-04-09T12:36:52.355Z,45.50
2018-04-09T12:39:20.596Z,48.90
2018-04-09T12:41:48.100Z,48.40
2018-04-09T12:44:15.690Z,49.80
2018-04-09T12:46:43.172Z,46.00
2018-04-09T12:49:10.655Z,45.63
2018-04-09T12:51:38.907Z,47.30
2018-04-09T12:54:06.586Z,48.00
2018-04-09T12:56:34.817Z,46.97
2018-04-09T12:59:02.315Z,47.60
2018-04-09T13:01:30.576Z,46.00
2018-04-09T13:03:58.044Z,45.63
2018-04-09T13:06:26.286Z,44.40
2018-04-09T13:08:53.778Z,42.93
2018-04-09T13:11:22.015Z,41.17
2018-04-09T13:13:49.503Z,39.90
2018-04-09T13:16:17.958Z,45.17
2018-04-09T13:18:45.991Z,44.37
2018-04-09T13:21:13.515Z,43.57
2018-04-09T13:23:40.966Z,40.60
2018-04-09T13:26:08.442Z,39.40
2018-04-09T13:28:36.681Z,39.93
2018-04-09T13:31:04.262Z,37.77
2018-04-09T13:33:32.131Z,37.93
2018-04-09T13:35:59.596Z,40.50
2018-04-09T13:38:27.961Z,39.77
2018-04-09T13:40:55.630Z,39.03
2018-04-09T13:43:24.025Z,37.77
2018-04-09T13:45:51.520Z,39.03
2018-04-09T13:48:19.070Z,41.30
2018-04-09T13:50:46.699Z,38.60
2018-04-09T13:53:14.303Z,36.57
2018-04-09T13:55:42.605Z,37.77
2018-04-09T13:58:10.090Z,34.30
2018-04-09T14:00:38.336Z,35.77
2018-04-09T14:03:05.820Z,34.70
2018-04-09T14:05:34.056Z,32.73
2018-04-09T14:08:01.543Z,32.73
2018-04-09T14:10:29.775Z,35.67
2018-04-09T14:12:57.295Z,33.67
2018-04-09T14:15:25.527Z,34.33
2018-04-09T14:17:53.130Z,34.10
2018-04-09T14:20:21.131Z,36.73
2018-04-09T14:22:48.737Z,34.83
2018-04-09T14:25:16.284Z,36.70
2018-04-09T14:27:43.904Z,38.03
2018-04-09T14:30:11.363Z,36.73
2018-04-09T14:32:38.996Z,37.67
2018-04-09T14:35:06.619Z,37.70
2018-04-09T14:37:34.087Z,40.27
2018-04-09T14:40:03.874Z,38.33
2018-04-09T14:42:31.362Z,39.73
2018-04-09T14:44:59.586Z,39.10
2018-04-09T14:47:27.063Z,38.50
2018-04-09T14:49:54.569Z,38.40
2018-04-09T14:52:22.812Z,38.83
2018-04-09T14:54:50.331Z,37.90
2018-04-09T14:57:17.835Z,38.03
2018-04-09T14:59:45.309Z,37.37
2018-04-09T15:02:13.671Z,37.47
2018-04-09T15:04:41.151Z,37.80
2018-04-09T15:07:09.412Z,39.50
2018-04-09T15:09:37.800Z,39.20
2018-04-09T15:12:06.054Z,39.07
2018-04-09T15:14:33.585Z,37.20
2018-04-09T15:17:01.557Z,37.20
2018-04-09T15:19:29.117Z,36.90
2018-04-09T15:21:56.716Z,37.97
2018-04-09T15:24:24.961Z,37.00
2018-04-09T15:26:52.494Z,35.27
2018-04-09T15:29:20.432Z,36.80
2018-04-09T15:31:47.931Z,36.63
2018-04-09T15:34:15.627Z,36.70
2018-04-09T15:36:43.295Z,35.33
2018-04-09T15:39:11.546Z,35.67
2018-04-09T15:41:39.028Z,36.37
2018-04-09T15:44:06.614Z,35.70
2018-04-09T15:46:34.103Z,35.00
2018-04-09T15:49:01.584Z,35.70
2018-04-09T15:51:29.070Z,34.97
2018-04-09T15:53:57.917Z,34.03
2018-04-09T15:56:25.530Z,33.90
2018-04-09T15:58:53.991Z,32.97
2018-04-09T16:01:22.251Z,32.57
2018-04-09T16:03:49.727Z,32.30
2018-04-09T16:06:18.208Z,32.57
2018-04-09T16:08:46.451Z,31.93
2018-04-09T16:11:13.930Z,30.40
2018-04-09T16:13:41.553Z,29.67
2018-04-09T16:16:09.027Z,25.13
2018-04-09T16:18:36.519Z,25.97
2018-04-09T16:21:04.943Z,23.87
2018-04-09T16:23:32.557Z,23.40
2018-04-09T16:26:00.101Z,24.13
2018-04-09T16:28:28.405Z,23.37
2018-04-09T16:30:56.013Z,21.93
2018-04-09T16:33:23.576Z,20.97
2018-04-09T16:35:51.116Z,22.10
2018-04-09T16:38:18.632Z,23.80
2018-04-09T16:40:46.872Z,22.47
2018-04-09T16:43:14.348Z,21.27
2018-04-09T16:45:41.864Z,21.40
2018-04-09T16:48:09.360Z,21.63
2018-04-09T16:50:36.856Z,21.93
2018-04-09T16:53:04.355Z,21.90
2018-04-09T16:55:31.982Z,21.47
2018-04-09T16:57:59.505Z,21.90
2018-04-09T17:00:27.764Z,21.43
2018-04-09T17:02:55.243Z,22.17
2018-04-09T17:05:23.520Z,22.97
2018-04-09T17:07:51.888Z,23.00
2018-04-09T17:10:19.395Z,21.27
2018-04-09T17:12:46.886Z,21.43
2018-04-09T17:15:14.375Z,22.97
2018-04-09T17:17:42.608Z,22.40
2018-04-09T17:20:10.103Z,22.40
2018-04-09T17:22:38.414Z,22.40
2018-04-09T17:25:05.902Z,22.37
2018-04-09T17:27:33.380Z,23.17
2018-04-09T17:30:00.912Z,22.40
2018-04-09T17:32:28.398Z,21.73
2018-04-09T17:34:56.754Z,21.23
2018-04-09T17:37:24.242Z,23.03
2018-04-09T17:39:52.481Z,21.47
2018-04-09T17:42:20.076Z,21.60
2018-04-09T17:44:48.328Z,22.90
2018-04-09T17:47:15.814Z,21.30
2018-04-09T17:49:44.125Z,21.80
2018-04-09T17:52:11.617Z,21.60
2018-04-09T17:54:39.073Z,21.77
2018-04-09T17:57:06.556Z,20.63
2018-04-09T17:59:34.112Z,21.63
2018-04-09T18:02:01.601Z,21.83
2018-04-09T18:04:29.847Z,20.77
2018-04-09T18:06:57.333Z,21.30
2018-04-09T18:09:24.790Z,22.23
2018-04-09T18:11:52.274Z,21.43
2018-04-09T18:14:19.798Z,21.03
2018-04-09T18:16:48.047Z,21.43
2018-04-09T18:19:15.602Z,20.13
2018-04-09T18:21:43.345Z,20.90
2018-04-09T18:24:11.144Z,20.37
2018-04-09T18:26:39.644Z,21.00
2018-04-09T18:29:08.022Z,20.00
2018-04-09T18:31:35.727Z,21.70
2018-04-09T18:34:04.716Z,22.40
2018-04-09T18:36:34.389Z,19.40
2018-04-09T18:39:02.799Z,21.90
2018-04-09T18:41:32.137Z,22.47
2018-04-09T18:44:02.112Z,21.37
2018-04-09T18:46:31.453Z,22.10
2018-04-09T18:49:00.908Z,21.40
2018-04-09T18:51:30.923Z,22.40
2018-04-09T18:54:00.298Z,21.20
2018-04-09T18:56:29.031Z,23.70
2018-04-09T18:58:59.617Z,22.90
2018-04-09T19:01:30.118Z,21.90
2018-04-09T19:03:59.134Z,22.70
2018-04-09T19:06:27.679Z,21.07
2018-04-09T19:08:55.268Z,23.53
2018-04-09T19:11:23.579Z,23.23
2018-04-09T19:13:51.072Z,21.97
2018-04-09T19:16:18.886Z,21.10
2018-04-09T19:18:46.383Z,22.37
2018-04-09T19:21:13.906Z,21.73
2018-04-09T19:23:41.426Z,21.17
2018-04-09T19:26:09.004Z,20.57
2018-04-09T19:28:37.273Z,20.30
2018-04-09T19:31:05.542Z,19.83
2018-04-09T19:33:33.173Z,18.80
2018-04-09T19:36:06.646Z,18.40
2018-04-09T19:38:40.120Z,18.90
2018-04-09T19:41:08.466Z,19.43
2018-04-09T19:43:35.995Z,20.03
2018-04-09T19:46:03.981Z,19.13
2018-04-09T19:48:32.299Z,18.53
2018-04-09T19:51:00.756Z,18.20
2018-04-09T19:53:28.901Z,18.93
2018-04-09T19:55:56.554Z,17.93
2018-04-09T19:58:24.797Z,18.37
2018-04-09T20:00:53.615Z,17.63
2018-04-09T20:03:21.479Z,18.10
2018-04-09T20:05:49.116Z,19.03
2018-04-09T20:08:16.925Z,19.70
2018-04-09T20:10:44.545Z,18.30
2018-04-09T20:13:12.909Z,18.87
2018-04-09T20:15:41.277Z,19.00
2018-04-09T20:18:09.682Z,18.50
2018-04-09T20:20:37.253Z,21.23
2018-04-09T20:23:05.886Z,21.90
2018-04-09T20:25:33.677Z,22.77
2018-04-09T20:28:02.095Z,21.93
2018-04-09T20:30:30.001Z,25.87
2018-04-09T20:32:57.591Z,23.33
2018-04-09T20:35:25.199Z,21.87
2018-04-09T20:37:52.963Z,21.83
2018-04-09T20:40:20.653Z,22.53
2018-04-09T20:42:48.904Z,22.97
2018-04-09T20:45:16.580Z,23.00
2018-04-09T20:47:44.164Z,22.83
2018-04-09T20:50:12.504Z,23.50
2018-04-09T20:52:40.008Z,24.03
2018-04-09T20:55:07.726Z,22.60
2018-04-09T20:57:36.647Z,24.73
2018-04-09T21:00:04.378Z,24.07
2018-04-09T21:02:32.707Z,25.47
2018-04-09T21:05:00.580Z,27.40
2018-04-09T21:07:30.061Z,26.87
2018-04-09T21:09:58.799Z,26.37
2018-04-09T21:12:26.494Z,27.57
2018-04-09T21:14:54.951Z,26.70
2018-04-09T21:17:22.646Z,29.70
2018-04-09T21:19:51.376Z,30.13
2018-04-09T21:22:19.015Z,31.83
2018-04-09T21:24:46.619Z,33.90
2018-04-09T21:27:14.385Z,30.90
2018-04-09T21:29:43.406Z,34.10
2018-04-09T21:32:10.900Z,33.40
2018-04-09T21:34:38.498Z,33.27
2018-04-09T21:37:06.006Z,35.27
2018-04-09T21:39:33.631Z,36.50
2018-04-09T21:42:01.125Z,36.23
2018-04-09T21:44:28.677Z,37.27
2018-04-09T21:46:56.962Z,35.73
2018-04-09T21:49:24.474Z,37.50
2018-04-09T21:51:52.103Z,37.30
2018-04-09T21:54:19.851Z,36.30
2018-04-09T21:56:47.345Z,39.27
2018-04-09T21:59:14.841Z,41.03
2018-04-09T22:01:43.092Z,41.27
2018-04-09T22:04:10.575Z,40.37
2018-04-09T22:06:38.872Z,41.63
2018-04-09T22:09:07.273Z,42.30
2018-04-09T22:11:34.787Z,42.27
2018-04-09T22:14:03.057Z,41.90
2018-04-09T22:16:31.354Z,41.80
2018-04-09T22:18:58.831Z,41.30
2018-04-09T22:21:26.320Z,39.17
2018-04-09T22:23:53.796Z,36.87
2018-04-09T22:26:21.272Z,35.97
2018-04-09T22:28:49.535Z,37.00
2018-04-09T22:31:17.003Z,38.00
2018-04-09T22:33:45.261Z,37.40
2018-04-09T22:36:12.746Z,35.33
2018-04-09T22:38:40.235Z,36.07
2018-04-09T22:41:07.728Z,34.70
2018-04-09T22:43:35.204Z,33.57
2018-04-09T22:46:03.455Z,32.87
2018-04-09T22:48:32.783Z,32.13
2018-04-09T22:51:01.169Z,30.90
2018-04-09T22:53:29.424Z,33.40
2018-04-09T22:55:56.910Z,31.77
2018-04-09T22:58:24.454Z,32.20
2018-04-09T23:00:52.865Z,31.03
2018-04-09T23:03:20.427Z,30.33
2018-04-09T23:05:49.572Z,31.40
2018-04-09T23:08:17.048Z,30.00
2018-04-09T23:10:44.541Z,30.47
2018-04-09T23:13:12.013Z,30.80
2018-04-09T23:15:39.526Z,29.47
2018-04-09T23:18:06.977Z,28.73
2018-04-09T23:20:35.231Z,27.80
2018-04-09T23:23:02.716Z,28.40
2018-04-09T23:25:30.962Z,28.27
2018-04-09T23:27:58.845Z,30.33
2018-04-09T23:30:27.115Z,29.40
2018-04-09T23:32:54.652Z,28.10
2018-04-09T23:35:22.226Z,28.50
2018-04-09T23:37:49.709Z,31.00
2018-04-09T23:40:17.349Z,31.23
2018-04-09T23:42:44.820Z,30.80
2018-04-09T23:45:13.081Z,31.23
2018-04-09T23:47:40.547Z,32.90
2018-04-09T23:50:08.891Z,34.90
2018-04-09T23:52:36.367Z,32.50
2018-04-09T23:55:04.635Z,33.90
2018-04-09T23:57:32.187Z,35.53
2018-04-09T23:59:59.777Z,37.43
